Time;durP1;ratioP1;P1;durP2;ratioP2;P2;SDS_P1;SDS_P2;PMS_P1;PMS_P2;Temp;Humidity;BMP_temperature;BMP_pressure;BME280_temperature;BME280_humidity;BME280_pressure;Samples;Min_cycle;Max_cycle;Signal;HPM_P1;HPM_P2
2021/08/11 00:12:04;;;;;;;;;;;;;;;;;;;;;
2021/08/11 00:22:23;;;;;;;;;;;;;;;;;;;;;
2021/08/11 00:26:40;;;;;;;;;;;;;;;;;;;;;
2021/08/11 00:30:35;;;;;;;8.03;7.28;;;;;;;20.63;63.49;100080.84;1742070;110;25886;-84
2021/08/11 00:38:57;;;;;;;9.53;7.05;;;;;;;20.62;63.64;100085.73;1765589;107;25901;-86
2021/08/11 00:49:53;;;;;;;;;;;;;;;;;;;;;
2021/08/11 01:12:51;;;;;;;10.58;9.48;;;;;;;20.91;63.42;100073.12;1671996;113;25982;-84
2021/08/11 01:16:38;;;;;;;15.58;9.70;;;;;;;20.83;63.59;100074.22;1626583;118;25967;-81
2021/08/11 01:20:28;;;;;;;;;;;;;;;;;;;;;
2021/08/11 01:29:52;;;;;;;;;;;;;;;;;;;;;
2021/08/11 01:54:59;;;;;;;8.13;6.97;;;;;;;21.01;63.40;100080.41;1696706;114;25951;-77
2021/08/11 01:58:40;;;;;;;8.30;7.50;;;;;;;21.05;63.34;100081.20;1710124;114;25849;-78
2021/08/11 02:02:23;;;;;;;7.08;6.50;;;;;;;21.08;63.25;100070.52;1710816;114;26174;-80
2021/08/11 02:06:05;;;;;;;7.50;6.87;;;;;;;21.08;63.21;100070.52;1707813;114;26701;-85
2021/08/11 02:09:57;;;;;;;;;;;;;;;;;;;;;
2021/08/11 02:18:57;;;;;;;9.28;5.75;;;;;;;21.03;63.15;100074.63;1705072;115;25890;-84
2021/08/11 02:40:01;;;;;;;;;;;;;;;;;;;;;
2021/08/11 02:44:50;;;;;;;5.12;4.72;;;;;;;21.06;62.71;100082.93;1720582;113;25937;-77
2021/08/11 03:01:48;;;;;;;8.63;5.53;;;;;;;21.02;62.48;100094.06;1641856;118;26063;-80
2021/08/11 03:05:17;;;;;;;6.30;5.17;;;;;;;20.94;62.42;100104.84;1588842;123;26059;-84
2021/08/11 03:09:28;;;;;;;6.17;5.62;;;;;;;20.90;62.45;100095.69;1676727;116;25853;-83
2021/08/11 03:16:59;;;;;;;7.03;5.70;;;;;;;20.94;62.37;100107.96;1640658;119;25929;-82
2021/08/11 03:20:58;;;;;;;6.35;5.50;;;;;;;20.92;62.30;100112.41;1641144;119;25865;-79
2021/08/11 03:28:46;;;;;;;5.28;4.72;;;;;;;20.89;62.27;100094.83;1587084;119;25998;-80
2021/08/11 03:32:26;;;;;;;6.70;5.47;;;;;;;20.92;62.20;100094.77;1588329;122;25965;-83
2021/08/11 03:36:33;;;;;;;;;;;;;;;;;;;;;
2021/08/11 03:43:31;;;;;;;;;;;;;;;;;;;;;
2021/08/11 03:52:58;;;;;;;;;;;;;;;20.88;61.85;100114.72;1673619;117;26036;-85
2021/08/11 03:57:43;;;;;;;;;;;;;;;;;;;;;
2021/08/11 04:11:50;;;;;;;8.48;7.72;;;;;;;20.84;61.90;100123.65;1615711;119;26074;-84
2021/08/11 04:36:28;;;;;;;9.88;8.98;;;;;;;20.94;61.90;100097.36;2011423;97;25737;-83
2021/08/11 04:40:16;;;;;;;9.28;8.48;;;;;;;20.98;61.90;100092.39;1926048;101;25883;-86
2021/08/11 04:44:21;;;;;;;;;;;;;;;;;;;;;
2021/08/11 04:48:04;;;;;;;;;;;;;;;;;;;;;
2021/08/11 05:03:56;;;;;;;;;;;;;;;;;;;;;
2021/08/11 05:07:42;;;;;;;;;;;;;;;;;;;;;
2021/08/11 05:11:15;;;;;;;12.90;9.30;;;;;;;21.17;61.59;100114.91;1767459;110;25887;-80
2021/08/11 05:15:13;;;;;;;;;;;;;;;;;;;;;
2021/08/11 05:39:11;;;;;;;;;;;;;;;;;;;;;
2021/08/11 05:49:40;;;;;;;;;;;;;;;;;;;;;
2021/08/11 05:54:11;;;;;;;8.55;7.37;;;;;;;21.47;60.91;100139.44;1694378;116;25975;-87
2021/08/11 05:57:59;;;;;;;8.00;7.20;;;;;;;21.55;60.91;100147.59;1765958;109;25987;-80
2021/08/11 06:01:40;;;;;;;8.13;7.42;;;;;;;21.85;60.68;100152.56;1749331;111;25798;-86
2021/08/11 06:05:35;;;;;;;10.00;7.67;;;;;;;21.95;60.27;100142.58;1747254;113;25863;-81
2021/08/11 06:09:07;;;;;;;;;;;;;;;21.90;60.21;100145.80;1756504;112;25989;-82
2021/08/11 06:12:51;;;;;;;7.65;7.05;;;;;;;21.95;60.20;100146.56;1763724;109;25932;-88
2021/08/11 06:16:54;;;;;;;;;;;;;;;;;;;;;
2021/08/11 06:25:06;;;;;;;;;;;;;;;;;;;;;
2021/08/11 06:38:33;;;;;;;6.78;6.12;;;;;;;24.18;56.84;100173.34;1783177;108;25948;-84
2021/08/11 06:51:01;;;;;;;6.33;5.72;;;;;;;23.97;56.11;100172.78;1681129;116;26304;-86
2021/08/11 06:59:20;;;;;;;;;;;;;;;;;;;;;
2021/08/11 07:03:06;;;;;;;5.33;4.78;;;;;;;25.04;54.68;100191.50;1809345;107;25985;-85
2021/08/11 07:07:29;;;;;;;4.70;4.30;;;;;;;25.31;54.17;100201.57;1810063;107;25834;-88
2021/08/11 07:11:06;;;;;;;5.12;4.62;;;;;;;25.70;53.54;100192.84;1815089;107;25350;-87
2021/08/11 07:14:33;;;;;;;5.12;4.67;;;;;;;26.04;52.78;100207.47;1832027;107;25865;-87
2021/08/11 07:22:26;;;;;;;8.08;4.20;;;;;;;27.89;50.64;100217.59;1823669;107;25847;-83
2021/08/11 07:30:57;;;;;;;5.30;4.80;;;;;;;30.89;45.91;100225.23;1935323;101;25919;-83
2021/08/11 07:35:01;;;;;;;6.55;4.05;;;;;;;31.44;44.40;100228.42;1944561;99;25869;-83
2021/08/11 07:39:18;;;;;;;;;;;;;;;;;;;;;
2021/08/11 07:59:53;;;;;;;;;;;;;;;;;;;;;
2021/08/11 08:07:38;;;;;;;8.75;3.33;;;;;;;34.19;36.11;100228.68;1980044;98;26131;-93
2021/08/11 08:11:33;;;;;;;;;;;;;;;;;;;;;
2021/08/11 08:25:58;;;;;;;;;;;;;;;;;;;;;
2021/08/11 08:29:57;;;;;;;5.45;2.22;;;;;;;35.78;33.65;100220.39;1881943;104;25652;-83
2021/08/11 08:44:08;;;;;;;;;;;;;;;;;;;;;
2021/08/11 08:49:06;;;;;;;2.10;1.80;;;;;;;39.99;29.21;100218.30;1785252;106;26499;-83
2021/08/11 08:53:00;;;;;;;2.00;1.57;;;;;;;40.48;27.85;100213.74;1733961;111;25906;-95
2021/08/11 08:57:06;;;;;;;1.80;1.70;;;;;;;40.74;27.07;100213.75;1789428;107;26460;-94
2021/08/11 09:22:16;;;;;;;;;;;;;;;;;;;;;
2021/08/11 09:27:42;;;;;;;;;;;;;;;;;;;;;
2021/08/11 09:39:28;;;;;;;;;;;;;;;;;;;;;
2021/08/11 09:43:43;;;;;;;2.72;2.37;;;;;;;37.79;26.29;100184.89;1790512;107;25880;-80
2021/08/11 09:47:27;;;;;;;2.10;1.55;;;;;;;36.69;27.03;100185.42;1807913;107;25518;-81
2021/08/11 09:51:20;;;;;;;2.77;1.55;;;;;;;36.62;28.13;100187.85;1814678;107;25965;-81
2021/08/11 09:55:08;;;;;;;1.95;1.75;;;;;;;36.94;28.11;100188.17;1896546;102;25884;-80
2021/08/11 09:59:08;;;;;;;2.80;1.65;;;;;;;36.41;27.61;100189.19;1973257;100;25834;-81
2021/08/11 10:03:08;;;;;;;2.62;1.75;;;;;;;35.79;28.06;100185.98;2096689;93;25818;-80
2021/08/11 10:07:08;;;;;;;4.22;1.37;;;;;;;35.27;28.71;100177.66;2035074;97;26102;-83
2021/08/11 10:11:23;;;;;;;;;;;;;;;;;;;;;
2021/08/11 10:15:16;;;;;;;1.95;1.60;;;;;;;34.44;28.98;100187.01;1963296;100;25819;-83
2021/08/11 10:19:08;;;;;;;1.90;1.70;;;;;;;34.38;29.50;100186.63;1873224;102;26381;-81
2021/08/11 10:22:40;;;;;;;1.90;1.50;;;;;;;34.73;29.43;100184.72;1836964;106;26575;-81
2021/08/11 10:26:22;;;;;;;2.50;1.47;;;;;;;35.15;28.94;100188.14;1782407;109;26606;-80
2021/08/11 10:29:59;;;;;;;1.65;1.55;;;;;;;35.42;28.82;100182.27;1783837;109;26178;-82
2021/08/11 10:33:47;;;;;;;1.67;1.32;;;;;;;35.38;28.15;100177.61;1781190;110;26425;-80
2021/08/11 10:37:31;;;;;;;4.62;1.25;;;;;;;35.22;28.38;100190.21;1776741;107;26027;-80
2021/08/11 10:41:32;;;;;;;2.72;1.42;;;;;;;34.88;28.29;100192.08;1745914;111;25949;-81
2021/08/11 10:45:23;;;;;;;;;;;;;;;;;;;;;
2021/08/11 10:49:19;;;;;;;1.42;1.27;;;;;;;34.02;29.33;100193.92;1798676;108;26162;-81
2021/08/11 10:53:31;;;;;;;4.80;1.17;;;;;;;33.98;29.61;100192.41;1769990;110;25901;-88
2021/08/11 11:00:42;;;;;;;3.75;1.30;;;;;;;33.70;29.46;100204.50;1780235;105;25498;-79
2021/08/11 11:04:41;;;;;;;2.10;1.10;;;;;;;33.50;29.86;100200.59;1872531;104;26307;-82
2021/08/11 11:08:28;;;;;;;3.30;1.90;;;;;;;33.04;30.38;100208.89;1890287;99;25902;-78
2021/08/11 11:12:21;;;;;;;1.87;1.42;;;;;;;32.63;30.87;100205.94;1889790;97;25854;-79
2021/08/11 11:15:58;;;;;;;1.30;1.20;;;;;;;32.47;31.10;100205.78;1997628;99;25731;-79
2021/08/11 11:19:19;;;;;;;2.52;1.32;;;;;;;32.15;31.54;100205.69;1978505;97;25484;-82
2021/08/11 11:27:00;;;;;;;2.02;1.20;;;;;;;32.10;32.22;100209.69;2054727;94;25946;-80
2021/08/11 11:30:39;;;;;;;1.62;1.20;;;;;;;32.17;31.90;100213.69;1951666;99;25799;-79
2021/08/11 11:34:34;;;;;;;;;;;;;;;;;;;;;
2021/08/11 11:42:54;;;;;;;4.05;1.25;;;;;;;32.51;31.39;100208.17;1773284;110;26170;-79
2021/08/11 11:46:23;;;;;;;1.60;1.15;;;;;;;32.24;31.13;100213.64;1777924;109;25932;-79
2021/08/11 11:49:47;;;;;;;1.85;1.62;;;;;;;32.02;31.41;100203.94;1778666;109;25913;-80
2021/08/11 11:53:14;;;;;;;2.10;0.98;;;;;;;32.48;31.06;100207.03;1778755;109;26030;-79
2021/08/11 12:00:56;;;;;;;1.77;1.20;;;;;;;33.34;29.57;100203.04;1714661;111;25872;-79
2021/08/11 12:04:36;;;;;;;4.97;1.10;;;;;;;33.82;29.25;100210.34;1734750;113;25843;-78
2021/08/11 12:08:07;;;;;;;2.52;1.00;;;;;;;34.14;28.57;100213.77;1733741;113;25861;-80
2021/08/11 12:11:43;;;;;;;2.92;0.70;;;;;;;34.15;27.85;100220.91;1734830;113;25929;-79
2021/08/11 12:15:23;;;;;;;3.10;0.90;;;;;;;34.27;26.95;100216.75;1733885;113;25955;-79
2021/08/11 12:19:07;;;;;;;1.22;0.88;;;;;;;34.35;26.98;100222.05;1729631;111;26305;-79
2021/08/11 12:23:00;;;;;;;2.62;1.02;;;;;;;34.37;26.92;100222.81;1741741;111;25899;-81
2021/08/11 12:26:39;;;;;;;3.77;1.40;;;;;;;34.21;27.54;100221.28;1777331;106;26025;-81
2021/08/11 12:30:50;;;;;;;;;;;;;;;;;;;;;
2021/08/11 12:34:07;;;;;;;4.37;1.32;;;;;;;34.21;27.98;100221.28;1832120;106;25808;-80
2021/08/11 12:37:55;;;;;;;2.02;1.10;;;;;;;34.12;28.10;100228.75;1871605;100;35313;-80
2021/08/11 12:41:49;;;;;;;1.22;1.00;;;;;;;34.14;28.03;100217.34;2076485;93;34850;-79
2021/08/11 12:45:18;;;;;;;2.25;1.07;;;;;;;34.25;27.71;100225.47;2062829;93;25933;-80
2021/08/11 12:49:31;;;;;;;3.08;1.00;;;;;;;34.12;28.05;100227.41;2073439;90;25821;-82
2021/08/11 12:52:57;;;;;;;3.47;0.82;;;;;;;34.07;27.98;100224.20;2153561;90;25791;-80
2021/08/11 12:56:18;;;;;;;4.67;1.20;;;;;;;33.79;27.43;100226.78;2167328;90;25983;-81
2021/08/11 13:00:29;;;;;;;;;;;;;;;;;;;;;
2021/08/11 13:03:49;;;;;;;2.00;1.07;;;;;;;32.71;28.09;100222.09;2146367;90;26307;-80
2021/08/11 13:11:12;;;;;;;2.27;1.27;;;;;;;32.70;28.86;100215.80;2159706;90;26162;-80
2021/08/11 13:15:23;;;;;;;2.00;1.10;;;;;;;32.64;28.56;100216.27;2151443;90;25773;-80
2021/08/11 13:19:33;;;;;;;2.42;1.40;;;;;;;32.30;28.58;100215.91;2155725;90;26308;-79
2021/08/11 13:23:25;;;;;;;3.02;1.50;;;;;;;32.16;28.90;100218.22;2092043;93;25885;-80
2021/08/11 13:27:31;;;;;;;1.35;0.95;;;;;;;32.34;28.93;100214.72;2083677;93;25920;-80
2021/08/11 13:38:56;;;;;;;2.25;1.20;;;;;;;32.56;28.38;100217.28;1926831;98;25847;-80
2021/08/11 13:42:57;;;;;;;1.20;0.90;;;;;;;32.49;28.42;100214.16;1931225;100;25891;-81
2021/08/11 13:46:40;;;;;;;1.62;1.00;;;;;;;32.29;28.46;100201.17;1955040;98;25734;-80
2021/08/11 13:54:08;;;;;;;2.17;1.00;;;;;;;32.44;28.33;100209.58;1906443;103;25818;-81
2021/08/11 13:57:51;;;;;;;;;;;;;;;;;;;;;
2021/08/11 14:01:08;;;;;;;3.90;1.02;;;;;;;32.03;28.85;100209.70;1907079;102;25839;-81
2021/08/11 14:04:52;;;;;;;;;;;;;;;;;;;;;
2021/08/11 14:08:24;;;;;;;1.07;0.93;;;;;;;32.01;29.23;100202.22;1910211;100;25810;-81
2021/08/11 14:12:01;;;;;;;2.98;1.00;;;;;;;31.91;29.34;100200.15;1918029;100;25902;-81
2021/08/11 14:15:43;;;;;;;1.65;1.00;;;;;;;31.89;29.53;100199.86;1966100;94;25794;-81
2021/08/11 14:19:22;;;;;;;1.20;1.00;;;;;;;31.43;29.50;100198.41;2029059;95;26092;-79
2021/08/11 14:23:15;;;;;;;1.07;0.80;;;;;;;31.15;29.86;100191.26;2070875;93;25864;-80
2021/08/11 14:26:42;;;;;;;4.42;0.80;;;;;;;30.84;29.98;100203.59;2102578;90;25837;-80
2021/08/11 14:30:06;;;;;;;1.50;1.02;;;;;;;30.43;30.33;100200.30;2127000;91;26041;-80
2021/08/11 14:33:39;;;;;;;3.90;0.98;;;;;;;30.15;30.80;100193.91;2128996;92;25821;-80
2021/08/11 14:36:59;;;;;;;1.35;1.05;;;;;;;29.96;30.83;100190.59;2127936;91;26198;-80
2021/08/11 14:40:24;;;;;;;1.93;1.00;;;;;;;29.86;31.28;100187.09;2128627;91;25876;-81
2021/08/11 14:44:06;;;;;;;2.60;0.80;;;;;;;29.79;31.12;100183.53;2128551;91;25849;-80
2021/08/11 14:47:27;;;;;;;3.02;0.70;;;;;;;29.65;31.34;100185.21;2131709;91;25749;-80
2021/08/11 14:51:12;;;;;;;;;;;;;;;29.68;31.38;100168.05;2282029;84;25672;-80
2021/08/11 14:54:54;;;;;;;0.70;0.70;;;;;;;29.43;31.51;100178.01;2331536;84;25800;-81
2021/08/11 15:02:02;;;;;;;2.85;0.90;;;;;;;29.04;31.85;100177.11;2262592;83;25834;-80
2021/08/11 15:05:41;;;;;;;;;;;;;;;;;;;;;
2021/08/11 15:09:04;;;;;;;5.30;1.00;;;;;;;28.49;32.50;100171.61;2101509;93;25876;-79
2021/08/11 15:12:58;;;;;;;2.65;0.70;;;;;;;28.52;32.70;100184.85;2072225;94;25801;-80
2021/08/11 15:16:26;;;;;;;1.45;0.70;;;;;;;28.54;32.79;100188.78;2072177;94;25912;-80
2021/08/11 15:19:55;;;;;;;0.90;0.80;;;;;;;28.37;32.98;100191.85;2044691;95;25875;-80
2021/08/11 15:23:19;;;;;;;3.62;1.00;;;;;;;28.25;33.22;100189.84;2045900;95;25768;-80
2021/08/11 15:26:48;;;;;;;0.70;0.70;;;;;;;28.03;33.53;100186.53;2045752;95;25738;-80
2021/08/11 15:30:14;;;;;;;0.90;0.70;;;;;;;27.86;33.86;100191.42;2029667;96;26321;-79
2021/08/11 15:33:45;;;;;;;1.12;0.60;;;;;;;27.67;34.12;100201.68;2043025;95;25826;-81
2021/08/11 15:37:38;;;;;;;2.30;0.70;;;;;;;27.58;34.46;100204.84;2043106;96;25743;-81
2021/08/11 15:41:07;;;;;;;0.95;0.88;;;;;;;27.47;34.66;100189.76;1979751;98;25827;-81
2021/08/11 15:44:38;;;;;;;2.45;0.75;;;;;;;27.36;34.84;100200.13;1984257;99;25693;-80
2021/08/11 15:48:20;;;;;;;1.35;0.78;;;;;;;27.27;35.07;100205.45;1977699;97;25850;-79
2021/08/11 15:51:39;;;;;;;2.55;0.65;;;;;;;27.12;35.36;100203.50;1973108;99;25859;-80
2021/08/11 15:55:20;;;;;;;1.27;0.78;;;;;;;27.02;35.67;100206.60;1976039;99;25812;-80
2021/08/11 15:58:53;;;;;;;1.57;0.80;;;;;;;27.00;35.95;100206.27;1933791;101;25854;-80
2021/08/11 16:02:17;;;;;;;0.90;0.70;;;;;;;26.92;36.12;100213.33;1931439;102;25957;-80
2021/08/11 16:06:16;;;;;;;3.05;0.90;;;;;;;26.89;36.34;100209.45;1993787;97;25964;-80
2021/08/11 16:14:02;;;;;;;2.87;0.90;;;;;;;26.82;36.58;100210.68;1984974;96;25897;-80
2021/08/11 16:17:36;;;;;;;2.05;0.98;;;;;;;26.71;36.65;100215.67;2051475;94;25744;-81
2021/08/11 16:21:31;;;;;;;;;;;;;;;;;;;;;
2021/08/11 16:25:18;;;;;;;3.80;1.00;;;;;;;26.49;36.99;100212.61;2061279;93;25859;-81
2021/08/11 16:28:40;;;;;;;0.75;0.75;;;;;;;26.38;37.13;100221.55;2082183;93;25842;-80
2021/08/11 16:32:45;;;;;;;;;;;;;;;;;;;;;
2021/08/11 16:36:10;;;;;;;0.75;0.75;;;;;;;26.25;37.17;100217.20;2158044;90;25843;-81
2021/08/11 16:39:39;;;;;;;1.25;1.00;;;;;;;26.18;37.13;100219.75;2153410;91;25698;-81
2021/08/11 16:43:21;;;;;;;3.83;0.98;;;;;;;26.12;37.07;100222.69;2170768;91;25509;-80
2021/08/11 16:47:08;;;;;;;1.47;1.35;;;;;;;26.07;37.09;100212.20;2162070;91;25714;-80
2021/08/11 16:50:37;;;;;;;2.02;0.98;;;;;;;26.04;37.17;100221.69;2211946;85;25844;-80
2021/08/11 16:54:21;;;;;;;1.15;0.80;;;;;;;25.97;37.31;100229.56;2220782;88;25771;-81
2021/08/11 16:57:49;;;;;;;1.37;0.90;;;;;;;25.97;37.49;100231.38;2228629;88;25916;-81
2021/08/11 17:01:21;;;;;;;1.10;0.95;;;;;;;25.92;37.67;100227.58;2224737;87;25685;-81
2021/08/11 17:05:01;;;;;;;2.12;0.95;;;;;;;25.87;37.83;100233.56;2226008;88;25757;-83
2021/08/11 17:08:23;;;;;;;1.17;1.02;;;;;;;25.80;38.10;100238.75;2227062;87;26034;-80
2021/08/11 17:12:12;;;;;;;1.98;1.12;;;;;;;25.77;38.21;100241.05;2227021;87;25775;-81
2021/08/11 17:15:53;;;;;;;1.77;1.20;;;;;;;25.77;38.52;100242.38;2073334;94;25804;-80
2021/08/11 17:19:27;;;;;;;;;;;;;;;;;;;;;
2021/08/11 17:23:04;;;;;;;1.95;1.10;;;;;;;25.72;38.74;100249.73;2040001;96;25916;-80
2021/08/11 17:26:57;;;;;;;2.60;1.02;;;;;;;25.67;38.98;100244.56;2041551;95;25727;-79
2021/08/11 17:38:23;;;;;;;1.52;1.15;;;;;;;25.58;39.49;100257.41;2149329;91;25872;-80
2021/08/11 17:46:00;;;;;;;2.75;2.50;;;;;;;25.42;39.89;100257.17;2129567;92;26146;-80
2021/08/11 17:49:43;;;;;;;3.30;1.60;;;;;;;25.39;40.11;100264.83;2089203;94;25872;-80
2021/08/11 17:53:15;;;;;;;1.77;1.67;;;;;;;25.30;40.30;100265.19;2085624;94;25942;-80
2021/08/11 17:56:55;;;;;;;1.17;0.98;;;;;;;25.22;40.58;100265.96;2087925;94;25705;-80
2021/08/11 18:00:44;;;;;;;;;;;;;;;;;;;;;
2021/08/11 18:04:37;;;;;;;2.17;1.35;;;;;;;25.20;40.83;100279.81;2083368;94;25817;-80
2021/08/11 18:08:10;;;;;;;4.72;1.30;;;;;;;25.16;41.08;100282.20;2087635;93;25784;-80
2021/08/11 18:12:16;;;;;;;1.57;1.17;;;;;;;25.08;41.32;100282.94;2089600;94;25908;-80
2021/08/11 18:16:01;;;;;;;4.33;1.72;;;;;;;25.01;41.44;100292.96;2117709;93;25812;-80
2021/08/11 18:19:33;;;;;;;2.20;1.30;;;;;;;24.93;41.86;100297.22;2133270;91;25708;-80
2021/08/11 18:23:04;;;;;;;3.58;1.50;;;;;;;24.86;42.02;100305.05;2004446;97;25817;-75
2021/08/11 18:26:36;;;;;;;5.28;1.67;;;;;;;24.86;42.38;100308.18;2004298;97;25735;-77
2021/08/11 18:29:59;;;;;;;1.92;1.57;;;;;;;24.87;42.64;100309.91;2064489;91;25911;-78
2021/08/11 18:33:23;;;;;;;4.35;1.52;;;;;;;24.88;43.08;100319.20;2215837;87;25837;-76
2021/08/11 18:36:47;;;;;;;2.15;1.40;;;;;;;24.85;43.35;100329.12;2215998;89;25868;-78
2021/08/11 18:40:32;;;;;;;3.95;1.40;;;;;;;24.85;43.68;100333.12;2212496;88;25776;-76
2021/08/11 18:43:52;;;;;;;15.65;1.87;;;;;;;24.81;43.71;100337.69;2199009;89;25973;-76
2021/08/11 18:47:20;;;;;;;2.17;1.40;;;;;;;24.78;43.98;100335.13;2209486;89;25702;-76
2021/08/11 18:51:17;;;;;;;3.25;1.75;;;;;;;24.71;44.28;100342.48;2171605;90;25883;-77
2021/08/11 18:55:05;;;;;;;2.65;1.85;;;;;;;24.63;44.54;100340.53;2210485;87;25466;-76
2021/08/11 18:58:41;;;;;;;2.95;2.20;;;;;;;24.57;44.87;100335.87;2258485;86;25269;-76
2021/08/11 19:02:24;;;;;;;5.08;2.20;;;;;;;24.53;45.10;100342.23;2298341;86;25821;-74
2021/08/11 19:06:06;;;;;;;5.05;1.92;;;;;;;24.47;45.40;100343.34;2295824;86;25900;-78
2021/08/11 19:09:33;;;;;;;4.10;2.08;;;;;;;24.34;45.54;100346.84;2290689;86;25935;-79
2021/08/11 19:13:02;;;;;;;2.15;1.77;;;;;;;24.27;45.77;100348.84;2289438;86;26651;-77
2021/08/11 19:16:30;;;;;;;2.45;1.70;;;;;;;24.14;45.91;100347.97;2287467;85;25932;-76
2021/08/11 19:20:06;;;;;;;2.87;1.60;;;;;;;24.04;46.04;100354.05;2292581;85;25854;-75
2021/08/11 19:23:55;;;;;;;4.37;2.22;;;;;;;23.94;46.29;100364.12;2295190;85;25744;-78
2021/08/11 19:31:00;;;;;;;2.72;1.92;;;;;;;23.65;46.79;100370.78;2136328;91;25811;-79
2021/08/11 19:34:28;;;;;;;2.70;1.67;;;;;;;23.44;47.17;100368.31;2126846;92;25833;-77
2021/08/11 19:37:49;;;;;;;2.62;1.60;;;;;;;23.29;47.63;100369.64;2127106;91;25776;-75
2021/08/11 19:41:12;;;;;;;3.37;1.72;;;;;;;23.13;47.87;100372.32;2117106;92;25967;-77
2021/08/11 19:44:52;;;;;;;3.83;1.85;;;;;;;22.95;48.23;100373.69;2093406;92;25770;-77
2021/08/11 19:48:27;;;;;;;2.22;1.95;;;;;;;22.83;48.40;100378.40;2023968;97;25714;-78
2021/08/11 19:51:50;;;;;;;2.60;1.70;;;;;;;22.75;48.60;100380.86;2029047;95;25943;-79
2021/08/11 19:55:33;;;;;;;3.67;1.75;;;;;;;22.66;48.86;100389.06;2054564;95;25897;-77
2021/08/11 19:59:40;;;;;;;2.25;1.80;;;;;;;22.53;49.08;100385.84;2053719;96;25850;-79
2021/08/11 20:03:12;;;;;;;2.80;1.77;;;;;;;22.43;49.08;100395.83;2060803;95;25787;-77
2021/08/11 20:06:42;;;;;;;2.47;2.27;;;;;;;22.35;49.16;100389.39;2070579;95;25865;-78
2021/08/11 20:10:25;;;;;;;2.45;1.95;;;;;;;22.29;49.16;100403.27;1935142;98;25978;-80
2021/08/11 20:14:08;;;;;;;6.75;2.00;;;;;;;22.24;49.10;100401.17;1935020;100;26293;-80
2021/08/11 20:21:20;;;;;;;3.05;1.82;;;;;;;22.12;49.11;100407.16;1837686;106;25944;-78
2021/08/11 20:25:24;;;;;;;3.77;2.08;;;;;;;22.05;49.00;100408.68;1814291;106;25929;-82
2021/08/11 20:28:55;;;;;;;2.22;2.02;;;;;;;21.99;49.14;100415.45;1746443;110;26210;-86
2021/08/11 20:32:30;;;;;;;3.75;1.57;;;;;;;21.92;49.25;100410.73;1758373;108;26016;-82
2021/08/11 20:36:27;;;;;;;6.20;1.75;;;;;;;21.87;49.05;100421.47;1714858;112;26608;-82
2021/08/11 20:40:09;;;;;;;2.95;1.75;;;;;;;21.78;49.18;100426.10;1683895;115;25859;-80
2021/08/11 20:44:12;;;;;;;5.30;3.07;;;;;;;21.70;49.25;100422.30;1714294;114;25946;-80
2021/08/11 20:47:56;;;;;;;3.45;1.65;;;;;;;21.63;49.09;100423.30;1717420;113;26394;-80
2021/08/11 20:51:48;;;;;;;2.65;1.55;;;;;;;21.60;49.35;100428.25;1717196;113;25905;-76
2021/08/11 20:55:21;;;;;;;2.75;1.80;;;;;;;21.64;49.45;100434.36;1676931;116;26525;-80
2021/08/11 20:59:14;;;;;;;;;;;;;;;;;;;;;
2021/08/11 21:02:59;;;;;;;;;;;;;;;;;;;;;
2021/08/11 21:10:06;;;;;;;2.40;2.10;;;;;;;21.43;49.72;100439.20;1713867;113;25828;-80
2021/08/11 21:14:13;;;;;;;5.40;2.02;;;;;;;21.44;49.90;100437.42;1715470;112;26103;-78
2021/08/11 21:21:17;;;;;;;5.28;1.85;;;;;;;21.22;49.92;100443.09;1816718;107;25917;-80
2021/08/11 21:24:46;;;;;;;4.78;1.75;;;;;;;21.10;50.07;100446.00;1835135;104;25820;-78
2021/08/11 21:28:37;;;;;;;2.33;1.90;;;;;;;21.07;50.37;100439.88;1867997;102;25913;-77
2021/08/11 21:32:09;;;;;;;2.17;1.80;;;;;;;21.06;50.53;100441.66;1865223;102;26387;-76
2021/08/11 21:35:50;;;;;;;5.83;2.15;;;;;;;21.01;50.68;100441.31;1863522;106;25789;-80
2021/08/11 21:39:16;;;;;;;2.72;2.10;;;;;;;20.97;50.81;100440.49;1897672;96;26155;-79
2021/08/11 21:43:03;;;;;;;2.83;1.80;;;;;;;20.91;50.99;100436.17;2022720;93;25854;-81
2021/08/11 21:46:28;;;;;;;3.50;1.80;;;;;;;20.93;51.20;100433.51;2096832;93;25732;-82
2021/08/11 21:50:24;;;;;;;7.50;1.87;;;;;;;20.86;51.35;100434.52;2092551;94;25997;-80
2021/08/11 21:54:18;;;;;;;4.20;1.80;;;;;;;20.79;51.56;100442.12;2000176;96;25846;-79
2021/08/11 21:57:46;;;;;;;3.22;2.45;;;;;;;20.71;51.79;100443.14;1957274;99;25912;-76
2021/08/11 22:01:31;;;;;;;1.92;1.62;;;;;;;20.67;52.01;100438.80;1956572;99;25777;-78
2021/08/11 22:05:07;;;;;;;4.62;2.35;;;;;;;20.64;52.07;100444.14;1953294;101;25783;-80
2021/08/11 22:08:53;;;;;;;4.03;2.10;;;;;;;20.58;52.22;100442.91;1911840;102;26552;-82
2021/08/11 22:12:55;;;;;;;4.92;2.45;;;;;;;20.50;52.53;100443.47;1896687;103;26694;-75
2021/08/11 22:16:58;;;;;;;4.15;1.95;;;;;;;20.47;52.66;100450.14;1916991;101;25941;-81
2021/08/11 22:21:23;;;;;;;3.95;1.87;;;;;;;20.44;52.74;100447.53;1916719;102;25800;-76
2021/08/11 22:32:23;;;;;;;3.08;2.20;;;;;;;20.36;53.12;100454.73;1890697;104;25908;-82
2021/08/11 22:36:11;;;;;;;3.73;1.90;;;;;;;20.34;53.24;100453.87;1890684;103;25925;-82
2021/08/11 22:40:19;;;;;;;2.15;2.05;;;;;;;20.31;53.29;100449.95;1866944;106;25998;-79
2021/08/11 22:44:02;;;;;;;;;;;;;;;20.28;53.35;100451.77;1868947;104;25837;-78
2021/08/11 22:47:52;;;;;;;5.42;2.15;;;;;;;20.25;53.48;100445.64;1866783;104;26060;-81
2021/08/11 22:51:47;;;;;;;5.53;1.80;;;;;;;20.19;53.59;100447.05;1867331;103;25977;-76
2021/08/11 22:55:31;;;;;;;;;;;;;;;;;;;;;
2021/08/11 22:59:22;;;;;;;3.45;2.70;;;;;;;20.19;53.73;100454.54;1881954;103;25770;-78
2021/08/11 23:03:13;;;;;;;3.72;1.90;;;;;;;20.20;53.74;100456.28;1853861;102;25839;-82
2021/08/11 23:07:11;;;;;;;;;;;;;;;;;;;;;
2021/08/11 23:15:33;;;;;;;6.05;2.27;;;;;;;20.17;53.98;100465.59;1727567;113;25812;-76
2021/08/11 23:19:06;;;;;;;;;;;;;;;;;;;;;
2021/08/11 23:22:52;;;;;;;5.37;2.60;;;;;;;20.03;54.13;100476.37;1806562;108;25823;-81
2021/08/11 23:26:47;;;;;;;;;;;;;;;;;;;;;
2021/08/11 23:30:33;;;;;;;7.80;2.45;;;;;;;19.91;54.40;100472.59;1812928;107;25855;-76
2021/08/11 23:34:17;;;;;;;4.08;2.40;;;;;;;19.87;54.63;100484.08;1813801;108;25912;-76
2021/08/11 23:37:57;;;;;;;2.92;2.62;;;;;;;19.84;54.78;100481.47;1815499;104;25893;-78
2021/08/11 23:41:42;;;;;;;3.17;2.08;;;;;;;19.81;54.96;100484.19;1811318;109;25915;-81
2021/08/11 23:45:23;;;;;;;3.33;2.35;;;;;;;19.81;54.97;100488.16;1788769;109;26113;-80
2021/08/11 23:49:14;;;;;;;4.95;2.90;;;;;;;19.71;55.11;100483.42;1744003;112;25911;-82
2021/08/11 23:56:47;;;;;;;2.77;2.00;;;;;;;19.63;55.38;100477.33;1707616;115;26412;-76
